createdAt,value
2022-12-14T00:01:34.395Z,-1.11
2022-12-14T00:05:36.038Z,-1.11
2022-12-14T00:09:37.695Z,-1.10
2022-12-14T00:13:39.903Z,-1.10
2022-12-14T00:17:41.771Z,-1.10
2022-12-14T00:21:43.310Z,-1.09
2022-12-14T00:25:44.882Z,-1.02
2022-12-14T00:29:50.606Z,-1.00
2022-12-14T00:33:52.828Z,-1.01
2022-12-14T00:37:54.402Z,-1.05
2022-12-14T00:41:56.143Z,-1.10
2022-12-14T00:45:58.381Z,-1.17
2022-12-14T00:50:00.039Z,-1.23
2022-12-14T00:54:01.667Z,-1.21
2022-12-14T00:58:03.231Z,-1.17
2022-12-14T01:02:05.075Z,-1.19
2022-12-14T01:06:06.948Z,-1.19
2022-12-14T01:10:09.018Z,-1.18
2022-12-14T01:14:13.299Z,-1.19
2022-12-14T01:18:15.039Z,-1.12
2022-12-14T01:22:16.605Z,-1.04
2022-12-14T01:26:18.971Z,-1.01
2022-12-14T01:30:20.816Z,-0.98
2022-12-14T01:34:22.362Z,-0.97
2022-12-14T01:38:23.916Z,-0.99
2022-12-14T01:42:25.576Z,-1.03
2022-12-14T01:46:35.868Z,-1.07
2022-12-14T01:50:45.592Z,-1.12
2022-12-14T01:54:56.511Z,-1.12
2022-12-14T01:59:02.347Z,-1.08
2022-12-14T02:03:27.375Z,-1.13
2022-12-14T02:07:30.248Z,-1.10
2022-12-14T02:11:37.947Z,-1.18
2022-12-14T02:15:39.911Z,-1.12
2022-12-14T02:19:44.041Z,-1.06
2022-12-14T02:24:08.044Z,-1.01
2022-12-14T02:28:49.698Z,-0.95
2022-12-14T02:33:24.425Z,-0.94
2022-12-14T02:37:43.394Z,-0.96
2022-12-14T02:42:01.386Z,-1.01
2022-12-14T02:46:19.763Z,-1.09
2022-12-14T02:50:29.293Z,-1.09
2022-12-14T02:54:56.065Z,-1.07
2022-12-14T02:58:58.302Z,-1.03
2022-12-14T03:03:00.913Z,-1.08
2022-12-14T03:07:22.469Z,-1.03
2022-12-14T03:11:31.607Z,-1.02
2022-12-14T03:15:38.388Z,-1.02
2022-12-14T03:19:46.432Z,-1.00
2022-12-14T03:23:53.135Z,-0.99
2022-12-14T03:28:11.246Z,-1.03
2022-12-14T03:32:18.918Z,-1.09
2022-12-14T03:36:30.423Z,-1.12
2022-12-14T03:40:46.063Z,-1.19
2022-12-14T03:45:05.593Z,-1.20
2022-12-14T03:49:32.187Z,-1.25
2022-12-14T03:53:33.729Z,-1.27
2022-12-14T03:57:38.232Z,-1.30
2022-12-14T04:01:50.162Z,-1.29
2022-12-14T04:06:00.332Z,-1.29
2022-12-14T04:10:34.464Z,-1.37
2022-12-14T04:15:05.288Z,-1.33
2022-12-14T04:19:20.982Z,-1.35
2022-12-14T04:23:50.488Z,-1.32
2022-12-14T04:27:58.853Z,-1.25
2022-12-14T04:32:09.821Z,-1.20
2022-12-14T04:36:23.804Z,-1.12
2022-12-14T04:40:35.517Z,-1.08
2022-12-14T04:44:42.524Z,-1.06
2022-12-14T04:49:08.897Z,-1.04
2022-12-14T04:53:16.501Z,-1.00
2022-12-14T04:57:37.673Z,-0.95
2022-12-14T05:01:48.963Z,-0.88
2022-12-14T05:06:16.543Z,-0.84
2022-12-14T05:10:50.967Z,-0.79
2022-12-14T05:15:04.858Z,-0.72
2022-12-14T05:19:10.561Z,-0.71
2022-12-14T05:23:12.545Z,-0.74
2022-12-14T05:27:14.406Z,-0.75
2022-12-14T05:31:16.641Z,-0.71
2022-12-14T05:35:18.278Z,-0.71
2022-12-14T05:39:20.041Z,-0.68
2022-12-14T05:43:21.636Z,-0.64
2022-12-14T05:47:23.750Z,-0.62
2022-12-14T05:51:25.510Z,-0.60
2022-12-14T05:55:27.146Z,-0.57
2022-12-14T05:59:28.837Z,-0.53
2022-12-14T06:03:31.014Z,-0.49
2022-12-14T06:07:32.815Z,-0.47
2022-12-14T06:11:38.439Z,-0.46
2022-12-14T06:15:41.233Z,-0.43
2022-12-14T06:19:43.286Z,-0.41
2022-12-14T06:23:51.848Z,-0.40
2022-12-14T06:27:54.879Z,-0.41
2022-12-14T06:31:56.482Z,-0.44
2022-12-14T06:35:58.065Z,-0.48
2022-12-14T06:39:59.814Z,-0.44
2022-12-14T06:44:06.027Z,-0.43
2022-12-14T06:48:07.912Z,-0.49
2022-12-14T06:52:11.486Z,-0.56
2022-12-14T06:56:17.470Z,-0.55
2022-12-14T07:00:20.203Z,-0.59
2022-12-14T07:04:21.925Z,-0.60
2022-12-14T07:08:23.670Z,-0.63
2022-12-14T07:12:25.226Z,-0.64
2022-12-14T07:16:29.348Z,-0.63
2022-12-14T07:20:31.442Z,-0.67
2022-12-14T07:24:33.115Z,-0.65
2022-12-14T07:28:37.212Z,-0.64
2022-12-14T07:32:38.907Z,-0.59
2022-12-14T07:36:40.677Z,-0.53
2022-12-14T07:40:42.528Z,-0.50
2022-12-14T07:44:44.324Z,-0.49
2022-12-14T07:48:51.547Z,-0.52
2022-12-14T07:52:53.181Z,-0.59
2022-12-14T07:56:54.832Z,-0.69
2022-12-14T08:00:56.574Z,-0.67
2022-12-14T08:04:58.244Z,-0.72
2022-12-14T08:09:00.919Z,-0.67
2022-12-14T08:13:02.513Z,-0.62
2022-12-14T08:17:04.183Z,-0.58
2022-12-14T08:21:07.756Z,-0.57
2022-12-14T08:25:09.593Z,-0.55
2022-12-14T08:29:12.963Z,-0.55
2022-12-14T08:33:14.682Z,-0.48
2022-12-14T08:37:16.329Z,-0.40
2022-12-14T08:41:18.336Z,-0.38
2022-12-14T08:45:27.620Z,-0.31
2022-12-14T08:49:32.416Z,-0.33
2022-12-14T08:53:35.871Z,-0.31
2022-12-14T08:57:37.639Z,-0.17
2022-12-14T09:01:39.494Z,-0.07
2022-12-14T09:05:41.282Z,0.02
2022-12-14T09:09:43.076Z,0.04
2022-12-14T09:13:45.222Z,-0.04
2022-12-14T09:17:47.373Z,-0.10
2022-12-14T09:21:53.976Z,-0.08
2022-12-14T09:26:17.435Z,0.01
2022-12-14T09:30:24.803Z,0.07
2022-12-14T09:34:29.275Z,0.18
2022-12-14T09:38:32.443Z,0.30
2022-12-14T09:42:50.541Z,0.32
2022-12-14T09:46:52.735Z,0.18
2022-12-14T09:50:54.697Z,0.13
2022-12-14T09:54:58.472Z,0.09
2022-12-14T09:59:02.587Z,0.03
2022-12-14T10:03:29.870Z,0.06
2022-12-14T10:07:49.775Z,0.16
2022-12-14T10:12:32.483Z,0.11
2022-12-14T10:17:06.014Z,0.21
2022-12-14T10:21:16.537Z,0.26
2022-12-14T10:25:25.412Z,0.26
2022-12-14T10:29:47.531Z,0.19
2022-12-14T10:33:50.775Z,0.12
2022-12-14T10:38:11.465Z,0.06
2022-12-14T10:42:29.848Z,0.11
2022-12-14T10:46:31.722Z,0.21
2022-12-14T10:50:53.544Z,0.35
2022-12-14T10:55:01.978Z,0.40
2022-12-14T10:59:18.802Z,0.28
2022-12-14T11:03:20.928Z,0.17
2022-12-14T11:07:25.390Z,0.30
2022-12-14T11:11:27.745Z,0.21
2022-12-14T11:15:37.022Z,0.17
2022-12-14T11:19:38.606Z,0.21
2022-12-14T11:23:46.102Z,0.31
2022-12-14T11:27:50.019Z,0.38
2022-12-14T11:31:54.925Z,0.39
2022-12-14T11:35:56.504Z,0.45
2022-12-14T11:40:04.993Z,0.59
2022-12-14T11:44:23.890Z,0.65
2022-12-14T11:48:28.136Z,0.78
2022-12-14T11:52:38.929Z,1.03
2022-12-14T11:56:40.552Z,1.23
2022-12-14T12:00:47.713Z,1.41
2022-12-14T12:04:57.859Z,1.35
2022-12-14T12:09:02.046Z,1.34
2022-12-14T12:13:07.193Z,1.25
2022-12-14T12:17:37.409Z,1.02
2022-12-14T12:21:42.863Z,0.85
2022-12-14T12:25:47.956Z,0.88
2022-12-14T12:30:07.146Z,1.01
2022-12-14T12:34:24.563Z,1.22
2022-12-14T12:38:26.260Z,1.27
2022-12-14T12:42:36.947Z,1.25
2022-12-14T12:47:15.376Z,1.22
2022-12-14T12:51:17.176Z,1.20
2022-12-14T12:55:21.453Z,1.22
2022-12-14T12:59:43.105Z,1.15
2022-12-14T13:03:48.701Z,0.99
2022-12-14T13:08:01.639Z,1.05
2022-12-14T13:12:08.326Z,0.99
2022-12-14T13:16:27.769Z,0.99
2022-12-14T13:20:34.748Z,0.94
2022-12-14T13:24:36.544Z,0.77
2022-12-14T13:29:09.142Z,0.74
2022-12-14T13:33:45.949Z,0.60
2022-12-14T13:38:04.971Z,0.60
2022-12-14T13:42:18.704Z,0.70
2022-12-14T13:46:24.634Z,0.78
2022-12-14T13:50:38.242Z,0.70
2022-12-14T13:54:41.557Z,0.57
2022-12-14T13:58:47.810Z,0.64
2022-12-14T14:02:55.735Z,0.70
2022-12-14T14:07:23.978Z,0.68
2022-12-14T14:11:36.941Z,0.64
2022-12-14T14:16:19.316Z,0.71
2022-12-14T14:20:44.998Z,0.71
2022-12-14T14:24:55.809Z,0.53
2022-12-14T14:29:21.683Z,0.50
2022-12-14T14:33:47.348Z,0.54
2022-12-14T14:38:02.654Z,0.56
2022-12-14T14:42:07.807Z,0.51
2022-12-14T14:46:10.875Z,0.36
2022-12-14T14:50:15.615Z,0.28
2022-12-14T14:54:46.153Z,0.30
2022-12-14T14:58:42.302Z,0.26
2022-12-14T15:02:45.808Z,0.27
2022-12-14T15:06:51.084Z,0.27
2022-12-14T15:10:52.994Z,0.26
2022-12-14T15:15:00.404Z,0.25
2022-12-14T15:19:26.741Z,0.23
2022-12-14T15:23:34.488Z,0.23
2022-12-14T15:27:38.984Z,0.21
2022-12-14T15:31:42.124Z,0.13
2022-12-14T15:35:45.580Z,0.10
2022-12-14T15:40:05.189Z,0.09
2022-12-14T15:44:21.068Z,0.00
2022-12-14T15:48:22.867Z,-0.08
2022-12-14T15:52:29.902Z,-0.14
2022-12-14T15:56:38.034Z,-0.26
2022-12-14T16:00:43.731Z,-0.43
2022-12-14T16:04:46.118Z,-0.51
2022-12-14T16:08:55.104Z,-0.53
2022-12-14T16:13:10.298Z,-0.51
2022-12-14T16:17:17.966Z,-0.53
2022-12-14T16:21:49.678Z,-0.51
2022-12-14T16:26:20.701Z,-0.47
2022-12-14T16:30:33.016Z,-0.46
2022-12-14T16:34:34.637Z,-0.43
2022-12-14T16:38:53.820Z,-0.38
2022-12-14T16:42:55.459Z,-0.31
2022-12-14T16:47:47.416Z,-0.27
2022-12-14T16:52:07.276Z,-0.22
2022-12-14T16:56:21.879Z,-0.24
2022-12-14T17:00:27.282Z,-0.23
2022-12-14T17:04:37.301Z,-0.27
2022-12-14T17:08:38.970Z,-0.33
2022-12-14T17:12:40.634Z,-0.39
2022-12-14T17:16:43.073Z,-0.51
2022-12-14T17:20:44.800Z,-0.61
2022-12-14T17:24:46.457Z,-0.75
2022-12-14T17:28:50.106Z,-0.89
2022-12-14T17:32:53.611Z,-1.03
2022-12-14T17:36:56.501Z,-1.14
2022-12-14T17:40:58.475Z,-1.26
2022-12-14T17:45:00.708Z,-1.36
2022-12-14T17:49:06.787Z,-1.46
2022-12-14T17:53:16.727Z,-1.51
2022-12-14T17:57:22.351Z,-1.57
2022-12-14T18:01:25.619Z,-1.63
2022-12-14T18:05:30.112Z,-1.68
2022-12-14T18:09:31.794Z,-1.77
2022-12-14T18:13:34.576Z,-1.84
2022-12-14T18:17:36.806Z,-1.90
2022-12-14T18:21:38.564Z,-1.98
2022-12-14T18:25:52.679Z,-2.04
2022-12-14T18:29:54.463Z,-2.06
2022-12-14T18:33:56.062Z,-2.14
2022-12-14T18:37:58.513Z,-2.17
2022-12-14T18:42:00.253Z,-2.20
2022-12-14T18:46:02.007Z,-2.26
2022-12-14T18:50:03.882Z,-2.32
2022-12-14T18:54:05.768Z,-2.38
2022-12-14T18:58:08.174Z,-2.43
2022-12-14T19:02:15.068Z,-2.46
2022-12-14T19:06:43.610Z,-2.49
2022-12-14T19:10:45.680Z,-2.54
2022-12-14T19:14:48.859Z,-2.56
2022-12-14T19:18:51.588Z,-2.58
2022-12-14T19:22:54.812Z,-2.61
2022-12-14T19:26:56.637Z,-2.61
2022-12-14T19:30:58.556Z,-2.63
2022-12-14T19:35:00.306Z,-2.63
2022-12-14T19:39:01.899Z,-2.66
2022-12-14T19:43:03.556Z,-2.67
2022-12-14T19:47:05.224Z,-2.66
2022-12-14T19:51:13.199Z,-2.64
2022-12-14T19:55:14.788Z,-2.66
2022-12-14T19:59:16.373Z,-2.64
2022-12-14T20:03:19.275Z,-2.62
2022-12-14T20:07:21.090Z,-2.59
2022-12-14T20:11:22.960Z,-2.58
2022-12-14T20:15:24.794Z,-2.55
2022-12-14T20:19:26.618Z,-2.55
2022-12-14T20:23:28.717Z,-2.55
2022-12-14T20:27:32.145Z,-2.61
2022-12-14T20:31:36.717Z,-2.64
2022-12-14T20:35:38.618Z,-2.65
2022-12-14T20:39:40.261Z,-2.66
2022-12-14T20:43:44.200Z,-2.65
2022-12-14T20:47:45.902Z,-2.68
2022-12-14T20:51:47.847Z,-2.66
2022-12-14T20:55:49.353Z,-2.67
2022-12-14T20:59:50.989Z,-2.65
2022-12-14T21:03:52.771Z,-2.65
2022-12-14T21:07:54.443Z,-2.65
2022-12-14T21:12:14.723Z,-2.64
2022-12-14T21:16:18.071Z,-2.64
2022-12-14T21:20:19.756Z,-2.58
2022-12-14T21:28:45.552Z,-2.48
2022-12-14T21:32:47.240Z,-2.42
2022-12-14T21:36:51.504Z,-2.32
2022-12-14T21:41:13.461Z,-2.24
2022-12-14T21:45:15.068Z,-2.19
2022-12-14T21:49:17.102Z,-2.17
2022-12-14T21:53:18.748Z,-2.12
2022-12-14T21:57:42.069Z,-2.02
2022-12-14T22:01:43.976Z,-1.95
2022-12-14T22:05:45.832Z,-1.92
2022-12-14T22:09:49.958Z,-1.87
2022-12-14T22:13:51.911Z,-1.80
2022-12-14T22:17:53.615Z,-1.77
2022-12-14T22:21:55.495Z,-1.71
2022-12-14T22:25:57.901Z,-1.70
2022-12-14T22:29:59.638Z,-1.70
2022-12-14T22:34:01.390Z,-1.67
2022-12-14T22:38:03.124Z,-1.62
2022-12-14T22:42:04.975Z,-1.60
2022-12-14T22:46:12.440Z,-1.58
2022-12-14T22:50:14.802Z,-1.55
2022-12-14T22:54:27.766Z,-1.57
2022-12-14T22:58:29.618Z,-1.58
2022-12-14T23:02:31.681Z,-1.61
2022-12-14T23:06:34.521Z,-1.63
2022-12-14T23:10:54.981Z,-1.64
2022-12-14T23:15:15.822Z,-1.64
2022-12-14T23:19:36.144Z,-1.63
2022-12-14T23:23:57.981Z,-1.61
2022-12-14T23:28:18.958Z,-1.54
2022-12-14T23:32:39.375Z,-1.48
2022-12-14T23:36:59.650Z,-1.47
2022-12-14T23:41:21.059Z,-1.46
2022-12-14T23:45:41.567Z,-1.43
2022-12-14T23:50:01.669Z,-1.48
2022-12-14T23:54:22.000Z,-1.47
2022-12-14T23:58:44.017Z,-1.43
